Time;durP1;ratioP1;P1;durP2;ratioP2;P2;SDS_P1;SDS_P2;PMS_P1;PMS_P2;Temp;Humidity;BMP_temperature;BMP_pressure;BME280_temperature;BME280_humidity;BME280_pressure;Samples;Min_cycle;Max_cycle;Signal;HPM_P1;HPM_P2
2024/04/16 00:02:16;;;;;;;9.30;8.90;;;6.70;1.00;;;;;;5433901;26;20241;-48
2024/04/16 00:04:42;;;;;;;9.77;9.27;;;6.70;99.90;;;;;;5432273;26;20268;-48
2024/04/16 00:07:07;;;;;;;9.70;8.93;;;6.70;1.00;;;;;;5433005;26;20675;-46
2024/04/16 00:09:33;;;;;;;9.70;9.30;;;6.70;99.90;;;;;;5432211;26;20678;-47
2024/04/16 00:12:00;;;;;;;9.60;9.20;;;6.60;99.90;;;;;;5433912;26;20242;-45
2024/04/16 00:14:25;;;;;;;9.77;9.37;;;6.60;99.90;;;;;;5432347;26;20238;-40
2024/04/16 00:16:51;;;;;;;10.07;9.57;;;6.70;54.40;;;;;;5433585;26;20467;-39
2024/04/16 00:19:17;;;;;;;9.30;8.90;;;6.60;1.00;;;;;;5433834;26;20767;-40
2024/04/16 00:21:42;;;;;;;9.63;9.20;;;6.70;1.00;;;;;;5432485;26;20234;-39
2024/04/16 00:24:08;;;;;;;9.60;9.20;;;6.70;1.00;;;;;;5433038;26;20285;-39
2024/04/16 00:26:33;;;;;;;9.73;9.23;;;6.70;1.00;;;;;;5432841;26;20250;-48
2024/04/16 00:28:59;;;;;;;10.07;9.47;;;6.80;1.00;;;;;;5432444;26;20225;-47
2024/04/16 00:31:24;;;;;;;9.40;9.00;;;6.80;99.90;;;;;;5432658;26;20237;-43
2024/04/16 00:33:50;;;;;;;9.50;9.10;;;6.80;99.90;;;;;;5434140;26;20229;-44
2024/04/16 00:36:16;;;;;;;9.50;9.10;;;6.80;99.90;;;;;;5433698;26;20760;-49
2024/04/16 00:38:41;;;;;;;9.77;9.27;;;6.80;99.90;;;;;;5430626;26;20443;-44
2024/04/16 00:41:07;;;;;;;9.33;8.93;;;6.80;99.90;;;;;;5428747;26;20369;-50
2024/04/16 00:43:32;;;;;;;9.50;9.10;;;6.80;99.90;;;;;;5431087;26;20301;-49
2024/04/16 00:45:59;;;;;;;9.87;9.20;;;6.90;99.90;;;;;;5432420;26;20280;-43
2024/04/16 00:48:27;;;;;;;9.37;8.97;;;7.00;99.90;;;;;;5434238;26;20338;-43
2024/04/16 00:50:55;;;;;;;9.47;9.07;;;6.90;95.60;;;;;;5433249;26;20546;-39
2024/04/16 00:53:22;;;;;;;9.63;9.23;;;6.90;61.40;;;;;;5432974;26;20516;-41
2024/04/16 00:55:49;;;;;;;9.60;9.20;;;6.90;33.50;;;;;;5424024;26;20531;-40
2024/04/16 00:58:17;;;;;;;9.70;9.07;;;6.90;38.20;;;;;;5428282;26;20508;-41
2024/04/16 01:00:43;;;;;;;9.50;9.00;;;7.00;29.40;;;;;;5423167;26;21132;-39
2024/04/16 01:03:09;;;;;;;9.67;9.20;;;7.00;1.00;;;;;;5426232;26;22562;-43
2024/04/16 01:05:35;;;;;;;9.93;9.40;;;7.00;1.00;;;;;;5420415;26;20917;-40
2024/04/16 01:08:02;;;;;;;9.90;9.50;;;7.10;1.00;;;;;;5432571;26;20331;-45
2024/04/16 01:10:36;;;;;;;9.60;9.20;;;7.10;1.00;;;;;;5423948;26;20479;-43
2024/04/16 01:13:02;;;;;;;9.57;9.17;;;7.00;1.00;;;;;;5431875;26;20574;-48
2024/04/16 01:15:28;;;;;;;10.23;9.73;;;7.10;1.00;;;;;;5430367;26;20531;-45
2024/04/16 01:17:54;;;;;;;9.80;9.33;;;7.10;1.00;;;;;;5419876;26;20575;-48
2024/04/16 01:20:19;;;;;;;9.30;8.90;;;7.20;1.00;;;;;;5413182;26;20233;-49
2024/04/16 01:22:51;;;;;;;9.77;9.37;;;7.30;1.00;;;;;;5414979;26;20467;-47
2024/04/16 01:25:17;;;;;;;9.90;9.50;;;7.30;1.00;;;;;;5422912;26;20333;-50
2024/04/16 01:27:42;;;;;;;10.00;9.60;;;7.30;1.00;;;;;;5434706;26;20996;-48
2024/04/16 01:30:08;;;;;;;10.00;9.60;;;7.30;1.00;;;;;;5434350;26;20574;-48
2024/04/16 01:32:34;;;;;;;10.00;9.50;;;7.40;1.00;;;;;;5431953;26;20247;-46
2024/04/16 01:34:59;;;;;;;10.00;9.60;;;7.30;1.00;;;;;;5437321;26;20371;-48
2024/04/16 01:37:25;;;;;;;10.27;9.70;;;7.30;1.00;;;;;;5436245;26;20226;-51
2024/04/16 01:39:50;;;;;;;10.10;9.60;;;7.30;1.00;;;;;;5423790;26;20799;-47
2024/04/16 01:42:16;;;;;;;10.00;9.60;;;7.20;1.00;;;;;;5413707;26;20830;-48
2024/04/16 01:44:49;;;;;;;10.10;9.70;;;7.10;1.00;;;;;;5435592;26;20230;-47
2024/04/16 01:47:15;;;;;;;9.90;9.40;;;7.00;1.00;;;;;;5436458;26;20656;-45
2024/04/16 01:49:41;;;;;;;9.40;9.00;;;6.90;1.00;;;;;;5422416;26;20896;-43
2024/04/16 01:52:06;;;;;;;10.00;9.53;;;6.80;1.00;;;;;;5406162;26;20989;-49
2024/04/16 01:54:32;;;;;;;9.30;8.90;;;6.70;1.00;;;;;;5428602;26;20615;-46
2024/04/16 01:56:57;;;;;;;10.13;9.53;;;6.80;1.00;;;;;;5434598;26;20245;-48
2024/04/16 01:59:23;;;;;;;9.70;9.20;;;6.80;1.00;;;;;;5413631;26;21051;-45
2024/04/16 02:01:49;;;;;;;9.57;9.17;;;6.80;1.00;;;;;;5435296;26;20655;-44
2024/04/16 02:04:14;;;;;;;9.80;9.40;;;6.90;1.00;;;;;;5403416;26;20226;-49
2024/04/16 02:06:40;;;;;;;9.67;9.27;;;6.90;1.00;;;;;;5436309;26;20597;-44
2024/04/16 02:09:05;;;;;;;10.00;9.60;;;7.00;1.00;;;;;;5436681;26;20273;-48
2024/04/16 02:11:31;;;;;;;10.23;9.73;;;7.00;1.00;;;;;;5436079;26;20477;-42
2024/04/16 02:13:56;;;;;;;10.40;9.80;;;7.00;1.00;;;;;;5436414;26;20669;-45
2024/04/16 02:16:22;;;;;;;9.93;9.53;;;7.00;1.00;;;;;;5435461;26;20230;-45
2024/04/16 02:18:47;;;;;;;10.50;9.50;;;7.00;1.00;;;;;;5436659;26;20269;-45
2024/04/16 02:21:13;;;;;;;10.20;9.70;;;6.90;1.00;;;;;;5435280;26;20272;-47
2024/04/16 02:23:40;;;;;;;10.00;9.50;;;6.90;1.00;;;;;;5436655;26;20221;-49
2024/04/16 02:26:06;;;;;;;9.63;9.23;;;6.90;1.00;;;;;;5435879;26;20234;-38
2024/04/16 02:28:32;;;;;;;9.97;9.50;;;6.90;1.00;;;;;;5435846;26;20463;-39
2024/04/16 02:30:57;;;;;;;9.60;9.20;;;7.00;1.00;;;;;;5404691;26;20672;-39
2024/04/16 02:33:23;;;;;;;8.57;8.17;;;7.00;1.00;;;;;;5436220;26;20569;-41
2024/04/16 02:35:49;;;;;;;9.30;8.90;;;7.00;1.00;;;;;;5435302;26;20759;-39
2024/04/16 02:38:14;;;;;;;10.13;9.63;;;6.90;1.00;;;;;;5434892;26;20233;-40
2024/04/16 02:40:40;;;;;;;9.73;9.30;;;6.90;1.00;;;;;;5435102;26;20308;-39
2024/04/16 02:43:06;;;;;;;9.70;9.30;;;6.90;1.00;;;;;;5435480;26;20817;-39
2024/04/16 02:45:32;;;;;;;9.60;9.20;;;6.90;1.00;;;;;;5434660;26;20412;-39
2024/04/16 02:47:57;;;;;;;9.63;9.20;;;6.80;1.00;;;;;;5434921;26;20562;-39
2024/04/16 02:50:23;;;;;;;9.87;9.47;;;6.90;1.00;;;;;;5435714;26;20908;-40
2024/04/16 02:52:48;;;;;;;10.00;9.40;;;6.90;1.00;;;;;;5435448;26;20628;-39
2024/04/16 02:55:19;;;;;;;9.47;9.07;;;6.90;1.00;;;;;;5435912;26;20226;-39
2024/04/16 02:57:44;;;;;;;9.30;8.90;;;6.80;1.00;;;;;;5433107;26;20281;-39
2024/04/16 03:00:10;;;;;;;9.43;9.03;;;6.80;1.00;;;;;;5432731;26;20517;-40
2024/04/16 03:02:37;;;;;;;10.27;9.70;;;6.90;1.00;;;;;;5433182;26;20230;-39
2024/04/16 03:05:04;;;;;;;10.33;9.83;;;6.70;1.00;;;;;;5433545;26;20512;-39
2024/04/16 03:07:29;;;;;;;9.40;9.00;;;6.70;1.00;;;;;;5433517;26;20459;-42
2024/04/16 03:09:55;;;;;;;10.00;9.50;;;6.70;1.00;;;;;;5435565;26;20661;-39
2024/04/16 03:12:20;;;;;;;9.83;9.43;;;6.70;1.00;;;;;;5403315;26;20313;-39
2024/04/16 03:14:46;;;;;;;9.83;9.23;;;6.70;1.00;;;;;;5433832;26;20289;-39
2024/04/16 03:17:11;;;;;;;9.80;9.40;;;6.80;1.00;;;;;;5434657;26;20666;-39
2024/04/16 03:19:37;;;;;;;10.00;9.50;;;6.80;1.00;;;;;;5434858;26;20298;-39
2024/04/16 03:22:03;;;;;;;10.20;9.60;;;6.90;1.00;;;;;;5435347;26;20756;-39
2024/04/16 03:24:28;;;;;;;9.53;9.13;;;6.90;1.00;;;;;;5435056;26;20238;-43
2024/04/16 03:26:54;;;;;;;9.27;8.80;;;6.90;1.00;;;;;;5433576;26;20237;-43
2024/04/16 03:29:20;;;;;;;10.40;9.80;;;6.80;1.00;;;;;;5435418;26;20747;-40
2024/04/16 03:31:46;;;;;;;8.60;8.20;;;6.90;1.00;;;;;;5434015;26;20463;-41
2024/04/16 03:34:11;;;;;;;9.30;8.90;;;6.90;1.00;;;;;;5432382;26;20234;-40
2024/04/16 03:36:37;;;;;;;9.30;8.90;;;6.90;1.00;;;;;;5434871;26;20814;-41
2024/04/16 03:39:04;;;;;;;9.50;9.00;;;6.90;1.00;;;;;;5433899;26;20878;-39
2024/04/16 03:41:29;;;;;;;9.10;8.60;;;7.00;1.00;;;;;;5435009;26;20575;-38
2024/04/16 03:43:55;;;;;;;9.80;9.20;;;7.00;1.00;;;;;;5434079;26;20234;-42
2024/04/16 03:46:20;;;;;;;9.80;9.40;;;7.00;1.00;;;;;;5433067;26;20284;-38
2024/04/16 03:48:46;;;;;;;10.00;9.30;;;7.00;1.00;;;;;;5433301;26;20242;-38
2024/04/16 03:51:12;;;;;;;9.93;9.33;;;7.00;1.00;;;;;;5434123;26;20973;-40
2024/04/16 03:53:37;;;;;;;9.97;9.47;;;6.90;1.00;;;;;;5433427;26;20261;-39
2024/04/16 03:56:03;;;;;;;9.47;9.07;;;7.00;1.00;;;;;;5433122;26;20237;-39
2024/04/16 03:58:29;;;;;;;10.30;9.80;;;7.00;1.00;;;;;;5432657;26;20285;-39
2024/04/16 04:01:05;;;;;;;10.00;9.60;;;7.10;1.00;;;;;;5431405;26;20463;-39
2024/04/16 04:03:31;;;;;;;9.70;9.30;;;7.00;1.00;;;;;;5430816;26;20642;-40
2024/04/16 04:05:56;;;;;;;9.50;8.77;;;7.00;1.00;;;;;;5432975;26;20846;-39
2024/04/16 04:08:22;;;;;;;10.10;9.70;;;6.90;1.00;;;;;;5432737;26;20230;-42
2024/04/16 04:10:48;;;;;;;9.60;9.20;;;6.90;1.00;;;;;;5434011;26;20336;-39
2024/04/16 04:13:14;;;;;;;9.20;8.70;;;6.90;1.00;;;;;;5433167;26;20523;-41
2024/04/16 04:15:39;;;;;;;10.10;9.60;;;6.90;1.00;;;;;;5403214;26;20329;-40
2024/04/16 04:18:06;;;;;;;9.33;8.93;;;6.90;1.00;;;;;;5433831;26;20605;-42
2024/04/16 04:20:32;;;;;;;9.47;8.97;;;6.90;1.00;;;;;;5434459;26;20961;-39
2024/04/16 04:22:58;;;;;;;10.90;10.00;;;6.90;1.00;;;;;;5434911;26;21190;-43
2024/04/16 04:25:24;;;;;;;9.60;9.00;;;7.00;1.00;;;;;;5434098;26;20452;-42
2024/04/16 04:27:51;;;;;;;9.60;9.20;;;7.00;1.00;;;;;;5433876;26;20794;-40
2024/04/16 04:30:17;;;;;;;9.40;8.90;;;7.10;1.00;;;;;;5434429;26;21055;-40
2024/04/16 04:32:48;;;;;;;10.30;9.70;;;7.10;1.00;;;;;;5434242;26;20627;-40
2024/04/16 04:35:14;;;;;;;9.07;8.50;;;7.10;1.00;;;;;;5433956;26;20864;-43
2024/04/16 04:37:39;;;;;;;10.27;9.60;;;7.10;1.00;;;;;;5432962;26;20515;-42
2024/04/16 04:40:05;;;;;;;9.20;8.70;;;7.10;1.00;;;;;;5433594;26;20260;-42
2024/04/16 04:42:31;;;;;;;9.10;8.70;;;7.10;1.00;;;;;;5432911;26;20234;-39
2024/04/16 04:44:56;;;;;;;8.80;8.10;;;7.10;1.00;;;;;;5399703;26;20467;-43
2024/04/16 04:47:22;;;;;;;9.90;9.20;;;7.10;1.00;;;;;;5431977;26;20230;-43
2024/04/16 04:49:48;;;;;;;9.60;9.10;;;7.10;1.00;;;;;;5433150;26;20728;-41
2024/04/16 04:52:13;;;;;;;10.20;9.70;;;7.10;1.00;;;;;;5432624;26;20273;-47
2024/04/16 04:54:39;;;;;;;9.80;9.40;;;7.20;1.00;;;;;;5432705;26;20296;-46
2024/04/16 04:57:05;;;;;;;8.90;8.43;;;7.30;1.00;;;;;;5430805;26;20230;-49
2024/04/16 04:59:31;;;;;;;10.03;9.33;;;7.40;1.00;;;;;;5433328;26;20558;-46
2024/04/16 05:01:56;;;;;;;8.63;8.20;;;7.40;1.00;;;;;;5435672;26;20304;-46
2024/04/16 05:04:22;;;;;;;9.50;9.00;;;7.40;1.00;;;;;;5436086;26;20284;-45
2024/04/16 05:06:48;;;;;;;9.63;9.23;;;7.40;1.00;;;;;;5435087;26;20238;-46
2024/04/16 05:09:13;;;;;;;9.40;8.90;;;7.40;1.00;;;;;;5436280;26;20577;-47
2024/04/16 05:11:39;;;;;;;8.97;8.57;;;7.40;1.00;;;;;;5437186;26;20241;-47
2024/04/16 05:14:09;;;;;;;9.10;8.70;;;7.40;1.00;;;;;;5434801;26;20280;-46
2024/04/16 05:16:35;;;;;;;10.37;9.77;;;7.40;1.00;;;;;;5435397;26;20268;-46
2024/04/16 05:19:02;;;;;;;10.23;9.73;;;7.40;1.00;;;;;;5435589;26;20949;-46
2024/04/16 05:21:27;;;;;;;10.00;9.40;;;7.50;1.00;;;;;;5435174;26;20852;-46
2024/04/16 05:23:53;;;;;;;10.00;9.40;;;7.50;1.00;;;;;;5403628;26;21146;-50
2024/04/16 05:26:21;;;;;;;10.73;10.13;;;7.50;1.00;;;;;;5437033;26;20238;-41
2024/04/16 05:28:47;;;;;;;9.33;8.87;;;7.50;1.00;;;;;;5435551;26;20237;-40
2024/04/16 05:31:13;;;;;;;9.10;8.70;;;7.40;1.00;;;;;;5436774;26;20451;-39
2024/04/16 05:33:38;;;;;;;9.77;9.07;;;7.40;1.00;;;;;;5435382;26;20342;-42
2024/04/16 05:36:04;;;;;;;9.50;8.90;;;7.40;1.00;;;;;;5434168;26;20478;-42
2024/04/16 05:38:30;;;;;;;9.97;9.27;;;7.40;1.00;;;;;;5436762;26;20379;-40
2024/04/16 05:40:56;;;;;;;10.30;9.80;;;7.40;1.00;;;;;;5436169;26;20459;-40
2024/04/16 05:43:21;;;;;;;9.43;8.70;;;7.50;1.00;;;;;;5436376;26;20592;-41
2024/04/16 05:45:47;;;;;;;9.93;9.33;;;7.50;1.00;;;;;;5435641;26;20233;-41
2024/04/16 05:48:13;;;;;;;9.63;9.23;;;7.50;1.00;;;;;;5434954;26;20234;-39
2024/04/16 05:50:38;;;;;;;9.80;9.40;;;7.60;1.00;;;;;;5434308;26;20234;-44
2024/04/16 05:53:04;;;;;;;9.00;8.40;;;7.60;1.00;;;;;;5435680;26;20233;-39
2024/04/16 05:55:30;;;;;;;8.67;8.27;;;7.70;1.00;;;;;;5436317;26;20564;-39
2024/04/16 05:57:55;;;;;;;9.47;8.97;;;7.70;1.00;;;;;;5434288;26;20478;-40
2024/04/16 06:00:21;;;;;;;9.80;9.30;;;7.80;1.00;;;;;;5435106;26;20272;-39
2024/04/16 06:02:47;;;;;;;9.10;8.70;;;7.70;1.00;;;;;;5434550;26;20246;-39
2024/04/16 06:05:13;;;;;;;9.80;9.20;;;7.80;1.00;;;;;;5436714;26;21230;-47
2024/04/16 06:07:39;;;;;;;8.97;8.47;;;7.90;1.00;;;;;;5435995;26;20717;-47
2024/04/16 06:10:05;;;;;;;10.40;9.50;;;8.00;1.00;;;;;;5436325;26;20548;-46
2024/04/16 06:12:31;;;;;;;9.33;8.83;;;8.00;1.00;;;;;;5435549;26;20230;-44
2024/04/16 06:14:59;;;;;;;10.10;9.20;;;8.10;1.00;;;;;;5435924;26;20451;-47
2024/04/16 06:17:24;;;;;;;9.30;8.90;;;8.10;1.00;;;;;;5436384;26;20226;-47
2024/04/16 06:19:50;;;;;;;10.00;9.40;;;8.10;1.00;;;;;;5436137;26;20784;-45
2024/04/16 06:22:16;;;;;;;8.87;8.43;;;8.20;1.00;;;;;;5436205;26;20536;-44
2024/04/16 06:24:41;;;;;;;9.63;9.13;;;8.20;1.00;;;;;;5436212;26;20234;-43
2024/04/16 06:27:07;;;;;;;9.37;8.97;;;8.30;1.00;;;;;;5435258;26;20229;-44
2024/04/16 06:29:33;;;;;;;9.07;8.67;;;8.30;99.90;;;;;;5436224;26;20495;-46
2024/04/16 06:31:58;;;;;;;8.80;8.30;;;8.50;99.90;;;;;;5435803;26;20269;-43
2024/04/16 06:34:24;;;;;;;8.77;8.40;;;8.70;99.90;;;;;;5436100;26;20272;-45
2024/04/16 06:36:49;;;;;;;9.03;8.40;;;8.70;99.90;;;;;;5404370;26;20268;-47
2024/04/16 06:39:15;;;;;;;8.70;8.20;;;8.80;99.90;;;;;;5433617;26;20574;-49
2024/04/16 06:41:40;;;;;;;8.27;7.87;;;9.00;99.90;;;;;;5433770;26;20234;-48
2024/04/16 06:44:06;;;;;;;9.63;9.13;;;9.00;99.90;;;;;;5434046;26;20742;-43
2024/04/16 06:46:32;;;;;;;9.07;8.67;;;9.00;99.90;;;;;;5434751;26;20238;-45
2024/04/16 06:48:57;;;;;;;9.27;8.87;;;9.10;99.90;;;;;;5434792;26;20284;-50
2024/04/16 06:51:23;;;;;;;8.80;8.20;;;9.20;99.90;;;;;;5437049;26;20230;-48
2024/04/16 06:53:50;;;;;;;9.67;9.07;;;9.10;99.90;;;;;;5435155;26;20600;-47
2024/04/16 06:56:16;;;;;;;9.60;8.90;;;9.20;99.90;;;;;;5434733;26;20250;-47
2024/04/16 06:58:42;;;;;;;9.13;8.63;;;9.20;99.90;;;;;;5436776;26;20456;-50
2024/04/16 07:01:09;;;;;;;9.77;9.17;;;9.30;99.90;;;;;;5436544;26;20238;-52
2024/04/16 07:03:35;;;;;;;9.20;8.80;;;9.50;99.90;;;;;;5435752;26;20607;-46
2024/04/16 07:06:00;;;;;;;9.27;8.80;;;9.60;99.90;;;;;;5436194;26;20460;-50
2024/04/16 07:08:27;;;;;;;9.73;8.87;;;9.50;99.90;;;;;;5435477;26;20280;-46
2024/04/16 07:10:53;;;;;;;9.10;8.70;;;9.40;99.90;;;;;;5435626;26;20479;-48
2024/04/16 07:13:19;;;;;;;8.67;8.17;;;9.50;99.90;;;;;;5437096;26;20561;-40
2024/04/16 07:15:44;;;;;;;9.13;8.60;;;9.50;99.90;;;;;;5436820;26;20516;-41
2024/04/16 07:18:10;;;;;;;9.33;8.70;;;9.30;99.90;;;;;;5436862;26;20272;-41
2024/04/16 07:20:36;;;;;;;9.63;9.03;;;9.20;99.90;;;;;;5437009;26;20296;-39
2024/04/16 07:23:02;;;;;;;8.80;8.37;;;9.30;99.90;;;;;;5434900;26;20241;-43
2024/04/16 07:25:27;;;;;;;9.20;8.60;;;9.30;99.90;;;;;;5435485;26;20272;-43
2024/04/16 07:27:53;;;;;;;8.50;7.93;;;9.30;99.90;;;;;;5436760;26;20313;-39
2024/04/16 07:30:19;;;;;;;9.20;8.73;;;9.30;99.90;;;;;;5435911;26;20229;-44
2024/04/16 07:32:45;;;;;;;8.50;8.10;;;9.30;99.90;;;;;;5435947;26;20229;-47
2024/04/16 07:35:11;;;;;;;8.73;8.33;;;9.30;99.90;;;;;;5435393;26;20517;-46
2024/04/16 07:37:36;;;;;;;8.60;8.30;;;9.30;99.90;;;;;;5422591;26;20577;-49
2024/04/16 07:40:03;;;;;;;9.70;8.87;;;9.40;99.90;;;;;;5433814;26;20347;-44
2024/04/16 07:42:28;;;;;;;9.23;8.80;;;9.40;99.90;;;;;;5428680;26;20230;-52
2024/04/16 07:44:54;;;;;;;8.70;8.30;;;9.20;99.90;;;;;;5436801;26;21032;-45
2024/04/16 07:47:21;;;;;;;9.00;8.50;;;9.30;99.90;;;;;;5436744;26;20285;-50
2024/04/16 07:49:47;;;;;;;8.40;8.10;;;9.40;99.90;;;;;;5433876;26;20463;-43
2024/04/16 07:52:13;;;;;;;9.20;8.70;;;9.40;99.90;;;;;;5434939;26;21119;-49
2024/04/16 07:54:39;;;;;;;8.70;8.30;;;9.40;99.90;;;;;;5434927;26;20506;-43
2024/04/16 07:57:04;;;;;;;9.03;8.63;;;9.30;99.90;;;;;;5434844;26;20282;-47
2024/04/16 07:59:30;;;;;;;9.50;9.00;;;9.30;99.90;;;;;;5434859;26;20354;-50
2024/04/16 08:01:56;;;;;;;9.33;8.73;;;9.30;99.90;;;;;;5434683;26;20738;-49
2024/04/16 08:04:21;;;;;;;10.17;9.67;;;9.30;99.90;;;;;;5433964;26;20359;-51
2024/04/16 08:06:48;;;;;;;9.67;9.13;;;9.20;99.90;;;;;;5435566;26;20282;-46
2024/04/16 08:09:14;;;;;;;10.00;9.50;;;9.30;99.90;;;;;;5435054;26;20311;-44
2024/04/16 08:11:40;;;;;;;9.23;8.83;;;9.30;99.90;;;;;;5434666;26;20957;-46
2024/04/16 08:14:05;;;;;;;9.73;9.13;;;9.30;99.90;;;;;;5434168;26;20506;-46
2024/04/16 08:16:31;;;;;;;9.03;8.63;;;9.30;99.90;;;;;;5434499;26;20269;-44
2024/04/16 08:18:56;;;;;;;9.43;9.03;;;9.50;99.90;;;;;;5434572;26;20695;-43
2024/04/16 08:21:22;;;;;;;9.30;8.80;;;9.60;99.90;;;;;;5434883;26;20334;-46
2024/04/16 08:23:54;;;;;;;10.07;9.37;;;9.60;99.90;;;;;;5434458;26;20230;-50
2024/04/16 08:26:20;;;;;;;10.00;9.60;;;9.90;99.90;;;;;;5434549;26;20464;-52
2024/04/16 08:28:45;;;;;;;9.60;9.13;;;10.00;99.90;;;;;;5432580;26;20891;-43
2024/04/16 08:31:11;;;;;;;9.23;8.73;;;10.10;99.90;;;;;;5433145;26;20334;-48
2024/04/16 08:33:37;;;;;;;9.60;9.20;;;10.20;99.90;;;;;;5402837;26;20326;-47
2024/04/16 08:36:03;;;;;;;10.83;10.17;;;10.10;99.90;;;;;;5441241;26;20225;-49
2024/04/16 08:38:28;;;;;;;10.37;9.87;;;10.20;99.90;;;;;;5442571;26;20756;-43
2024/04/16 08:40:56;;;;;;;9.97;9.47;;;10.10;99.90;;;;;;5441502;26;20507;-49
2024/04/16 08:43:24;;;;;;;9.83;9.23;;;10.00;99.90;;;;;;5442249;26;20277;-48
2024/04/16 08:45:51;;;;;;;9.57;8.97;;;10.10;99.90;;;;;;5441754;26;20471;-46
2024/04/16 08:48:17;;;;;;;9.43;9.03;;;10.10;99.90;;;;;;5441983;26;20444;-46
2024/04/16 08:50:44;;;;;;;9.83;9.43;;;9.90;99.90;;;;;;5441292;26;20459;-45
2024/04/16 08:53:11;;;;;;;10.33;9.73;;;9.90;99.90;;;;;;5442006;26;20455;-47
2024/04/16 08:55:38;;;;;;;9.90;9.40;;;9.90;99.90;;;;;;5441417;26;20451;-44
2024/04/16 08:58:04;;;;;;;10.67;10.00;;;10.00;99.90;;;;;;5441595;26;20531;-50
2024/04/16 09:00:31;;;;;;;9.80;9.10;;;10.00;99.90;;;;;;5439741;26;20466;-47
2024/04/16 09:02:57;;;;;;;9.93;9.43;;;9.90;99.90;;;;;;5441748;26;20491;-44
2024/04/16 09:05:24;;;;;;;9.40;9.00;;;10.00;99.90;;;;;;5440414;26;20931;-42
2024/04/16 09:07:49;;;;;;;9.73;9.23;;;10.20;99.90;;;;;;5441447;26;20867;-45
2024/04/16 09:10:22;;;;;;;9.53;9.03;;;10.50;99.90;;;;;;5440845;26;20502;-43
2024/04/16 09:12:48;;;;;;;9.53;9.13;;;10.60;99.90;;;;;;5441711;26;20233;-45
2024/04/16 09:15:15;;;;;;;9.47;8.97;;;10.90;99.90;;;;;;5440783;26;20511;-49
2024/04/16 09:17:54;;;;;;;10.43;9.83;;;11.20;99.90;;;;;;5441258;26;20452;-47
2024/04/16 09:20:27;;;;;;;11.00;10.40;;;11.70;99.90;;;;;;5409051;26;21016;-44
2024/04/16 09:22:53;;;;;;;10.27;9.40;;;12.20;99.90;;;;;;5441146;26;20451;-45
2024/04/16 09:25:24;;;;;;;10.90;10.00;;;11.30;99.90;;;;;;5440765;26;20470;-45
2024/04/16 09:27:54;;;;;;;10.00;9.60;;;11.50;99.90;;;;;;5440490;26;20479;-47
2024/04/16 09:30:21;;;;;;;10.20;9.70;;;11.90;99.90;;;;;;5439040;26;20467;-47
2024/04/16 09:32:56;;;;;;;10.33;9.63;;;12.20;99.90;;;;;;5441295;26;20802;-45
2024/04/16 09:35:27;;;;;;;10.40;9.80;;;12.20;99.90;;;;;;5440510;26;20803;-47
2024/04/16 09:38:08;;;;;;;10.10;9.60;;;12.30;99.90;;;;;;5440913;26;20459;-45
2024/04/16 09:40:34;;;;;;;9.80;9.40;;;11.80;99.90;;;;;;5440834;26;20526;-48
2024/04/16 09:43:01;;;;;;;10.60;10.00;;;11.30;99.90;;;;;;5440634;26;20459;-46
2024/04/16 09:45:30;;;;;;;10.73;10.13;;;11.30;99.90;;;;;;5439496;26;20966;-43
2024/04/16 09:47:57;;;;;;;10.43;9.73;;;11.00;99.90;;;;;;5434618;26;20507;-46
2024/04/16 09:50:23;;;;;;;9.80;9.20;;;11.10;99.90;;;;;;5436786;26;20624;-45
2024/04/16 09:52:52;;;;;;;9.33;8.83;;;10.90;99.90;;;;;;5436901;26;20443;-45
2024/04/16 09:55:22;;;;;;;10.17;9.67;;;11.00;99.90;;;;;;5436446;26;20507;-49
2024/04/16 09:57:48;;;;;;;9.90;9.37;;;11.20;99.90;;;;;;5436445;26;20463;-45
2024/04/16 10:00:15;;;;;;;9.30;8.90;;;11.60;99.90;;;;;;5436427;26;21037;-47
2024/04/16 10:02:42;;;;;;;11.23;10.30;;;12.50;99.90;;;;;;5436646;26;20862;-47
2024/04/16 10:05:12;;;;;;;9.80;9.20;;;13.00;99.90;;;;;;5431604;26;20524;-42
2024/04/16 10:07:39;;;;;;;9.77;9.27;;;12.60;99.90;;;;;;5432770;26;20463;-41
2024/04/16 10:10:07;;;;;;;10.00;9.50;;;12.80;99.90;;;;;;5432643;26;20882;-42
2024/04/16 10:12:34;;;;;;;9.73;9.13;;;13.30;99.90;;;;;;5436219;26;20455;-40
2024/04/16 10:15:01;;;;;;;8.63;8.33;;;13.40;99.90;;;;;;5435674;26;20508;-40
2024/04/16 10:17:28;;;;;;;9.80;9.30;;;13.10;99.90;;;;;;5433488;26;20468;-47
2024/04/16 10:19:54;;;;;;;9.57;9.00;;;12.80;99.90;;;;;;5435716;26;20515;-41
2024/04/16 10:22:20;;;;;;;10.13;9.63;;;12.40;99.90;;;;;;5435754;26;20463;-40
2024/04/16 10:24:54;;;;;;;9.00;8.60;;;12.20;99.90;;;;;;5435378;26;20272;-42
2024/04/16 10:27:24;;;;;;;10.37;9.87;;;12.80;99.90;;;;;;5435167;26;20296;-41
2024/04/16 10:30:06;;;;;;;9.43;8.93;;;13.00;99.90;;;;;;5435804;26;21589;-45
2024/04/16 10:32:32;;;;;;;9.40;9.00;;;12.60;99.90;;;;;;5435068;26;20520;-42
2024/04/16 10:35:00;;;;;;;9.30;8.80;;;12.30;99.90;;;;;;5436118;26;20824;-42
2024/04/16 10:37:26;;;;;;;9.57;9.17;;;12.40;99.90;;;;;;5435578;26;20334;-49
2024/04/16 10:39:58;;;;;;;9.10;8.60;;;12.70;99.90;;;;;;5435304;26;20464;-44
2024/04/16 10:42:28;;;;;;;10.77;10.27;;;13.10;99.90;;;;;;5435036;26;20242;-46
2024/04/16 10:44:56;;;;;;;9.93;9.53;;;13.20;99.90;;;;;;5435846;26;20511;-44
2024/04/16 10:47:25;;;;;;;10.27;9.73;;;13.30;99.90;;;;;;5434570;26;20572;-46
2024/04/16 10:49:52;;;;;;;9.90;9.40;;;12.90;99.90;;;;;;5435638;26;21025;-49
2024/04/16 10:52:20;;;;;;;9.97;9.57;;;13.00;99.90;;;;;;5435215;26;20455;-47
2024/04/16 10:54:50;;;;;;;9.80;9.40;;;13.10;99.90;;;;;;5434387;26;20580;-45
2024/04/16 10:57:21;;;;;;;9.87;9.47;;;12.50;99.90;;;;;;5434927;26;20456;-43
2024/04/16 10:59:47;;;;;;;10.07;9.47;;;12.30;99.90;;;;;;5434856;26;21017;-46
2024/04/16 11:02:13;;;;;;;9.40;8.80;;;12.40;99.90;;;;;;5435011;26;20582;-46
2024/04/16 11:04:39;;;;;;;9.30;8.90;;;12.20;99.90;;;;;;5435529;26;20762;-48
2024/04/16 11:07:05;;;;;;;9.30;9.00;;;11.90;99.90;;;;;;5432997;26;20234;-47
2024/04/16 11:09:31;;;;;;;10.53;9.63;;;11.90;99.90;;;;;;5435103;26;20588;-45
2024/04/16 11:11:58;;;;;;;10.10;9.50;;;11.80;99.90;;;;;;5434233;26;20238;-47
2024/04/16 11:14:24;;;;;;;9.43;9.03;;;11.40;99.90;;;;;;5435476;26;20929;-47
2024/04/16 11:16:50;;;;;;;9.63;9.23;;;11.20;99.90;;;;;;5435165;26;20455;-52
2024/04/16 11:19:17;;;;;;;9.90;9.30;;;11.30;99.90;;;;;;5435243;26;20864;-45
2024/04/16 11:21:43;;;;;;;9.00;8.60;;;11.10;99.90;;;;;;5403201;26;20258;-48
2024/04/16 11:24:09;;;;;;;8.30;8.00;;;11.10;99.90;;;;;;5435421;26;20451;-50
2024/04/16 11:26:37;;;;;;;9.50;8.87;;;11.30;99.90;;;;;;5434704;26;20871;-48
2024/04/16 11:29:03;;;;;;;9.83;9.33;;;11.50;99.90;;;;;;5435335;26;20260;-44
2024/04/16 11:31:29;;;;;;;8.10;7.80;;;11.80;99.90;;;;;;5434851;26;20459;-52
2024/04/16 11:33:55;;;;;;;9.60;9.27;;;12.10;99.90;;;;;;5434885;26;20315;-52
2024/04/16 11:36:21;;;;;;;8.70;8.40;;;13.20;99.90;;;;;;5433916;26;20511;-44
2024/04/16 11:38:48;;;;;;;8.87;8.37;;;13.90;99.90;;;;;;5433490;26;20864;-45
2024/04/16 11:41:17;;;;;;;9.20;8.80;;;14.30;99.90;;;;;;5434696;26;20520;-49
2024/04/16 11:43:45;;;;;;;9.07;8.67;;;14.20;99.90;;;;;;5434204;26;20459;-49
2024/04/16 11:46:13;;;;;;;8.77;8.47;;;13.60;99.90;;;;;;5434822;26;20531;-54
2024/04/16 11:48:39;;;;;;;9.40;8.83;;;13.00;99.90;;;;;;5434653;26;21180;-45
2024/04/16 11:51:07;;;;;;;9.40;8.90;;;12.30;99.90;;;;;;5402896;26;20962;-41
2024/04/16 11:53:33;;;;;;;10.10;9.50;;;12.30;99.90;;;;;;5434673;26;20848;-44
2024/04/16 11:55:59;;;;;;;9.30;8.87;;;12.10;99.90;;;;;;5434353;26;20519;-47
2024/04/16 11:58:25;;;;;;;9.00;8.47;;;12.00;99.90;;;;;;5434541;26;20846;-45
2024/04/16 12:00:52;;;;;;;10.00;9.50;;;12.10;99.90;;;;;;5434902;26;20560;-50
2024/04/16 12:03:17;;;;;;;8.73;8.33;;;12.40;99.90;;;;;;5434663;26;20267;-52
2024/04/16 12:05:44;;;;;;;8.53;8.23;;;12.70;99.90;;;;;;5431972;26;20872;-49
2024/04/16 12:08:09;;;;;;;10.07;9.67;;;13.20;99.90;;;;;;5433995;26;20243;-47
2024/04/16 12:10:35;;;;;;;9.90;9.33;;;13.40;99.90;;;;;;5433450;26;20569;-46
2024/04/16 12:13:01;;;;;;;9.17;8.77;;;13.20;99.90;;;;;;5433944;26;20230;-47
2024/04/16 12:15:27;;;;;;;9.37;8.93;;;13.00;99.90;;;;;;5434442;26;20261;-45
2024/04/16 12:17:52;;;;;;;9.37;8.97;;;13.10;99.90;;;;;;5433636;26;20896;-45
2024/04/16 12:20:18;;;;;;;9.10;8.70;;;13.00;99.90;;;;;;5434189;26;20234;-43
2024/04/16 12:22:44;;;;;;;9.70;9.30;;;13.00;99.90;;;;;;5434213;26;20265;-45
2024/04/16 12:25:09;;;;;;;9.90;9.50;;;13.10;99.90;;;;;;5434343;26;20242;-45
2024/04/16 12:27:35;;;;;;;9.43;9.10;;;13.20;99.90;;;;;;5433958;26;20564;-48
2024/04/16 12:30:00;;;;;;;8.93;8.63;;;13.10;99.90;;;;;;5434114;26;21042;-51
2024/04/16 12:32:26;;;;;;;9.10;8.70;;;12.60;99.90;;;;;;5434041;26;20518;-51
2024/04/16 12:34:52;;;;;;;9.47;9.07;;;12.40;99.90;;;;;;5433507;26;20229;-48
2024/04/16 12:37:17;;;;;;;9.33;8.87;;;12.10;99.90;;;;;;5431876;26;20241;-45
2024/04/16 12:39:43;;;;;;;9.27;8.87;;;11.80;99.90;;;;;;5401896;26;20593;-45
2024/04/16 12:42:09;;;;;;;9.50;9.00;;;11.60;99.90;;;;;;5433754;26;20307;-46
2024/04/16 12:44:34;;;;;;;10.40;10.00;;;10.90;99.90;;;;;;5433164;26;20234;-44
2024/04/16 12:47:00;;;;;;;11.77;11.27;;;10.60;99.90;;;;;;5433607;26;20275;-52
2024/04/16 12:49:26;;;;;;;11.73;11.23;;;10.70;1.00;;;;;;5434679;26;20762;-44
2024/04/16 12:51:52;;;;;;;11.80;11.30;;;11.30;1.00;;;;;;5435479;26;20276;-48